createdAt,value
2023-04-23T00:02:08.244Z,100325.56
2023-04-23T00:04:39.016Z,100325.31
2023-04-23T00:07:07.177Z,100322.56
2023-04-23T00:09:36.240Z,100328.75
2023-04-23T00:12:03.664Z,100315.56
2023-04-23T00:14:31.068Z,100318.09
2023-04-23T00:16:58.219Z,100312.63
2023-04-23T00:19:25.326Z,100314.09
2023-04-23T00:21:52.192Z,100309.59
2023-04-23T00:24:20.161Z,100311.75
2023-04-23T00:26:48.439Z,100311.09
2023-04-23T00:29:15.338Z,100307.22
2023-04-23T00:31:42.340Z,100310.41
2023-04-23T00:34:09.185Z,100309.09
2023-04-23T00:36:35.997Z,100298.81
2023-04-23T00:39:02.910Z,100303.16
2023-04-23T00:41:29.812Z,100296.97
2023-04-23T00:43:58.640Z,100305.69
2023-04-23T00:46:26.465Z,100300.69
2023-04-23T00:48:54.460Z,100297.25
2023-04-23T00:51:22.385Z,100300.41
2023-04-23T00:53:49.615Z,100293.19
2023-04-23T00:56:18.046Z,100290.72
2023-04-23T00:58:45.565Z,100296.28
2023-04-23T01:01:14.015Z,100305.19
2023-04-23T01:03:43.429Z,100304.78
2023-04-23T01:06:10.500Z,100305.94
2023-04-23T01:08:38.874Z,100304.25
2023-04-23T01:11:06.174Z,100299.22
2023-04-23T01:13:33.345Z,100291.63
2023-04-23T01:16:00.366Z,100291.84
2023-04-23T01:18:29.824Z,100288.75
2023-04-23T01:20:56.704Z,100288.81
2023-04-23T01:23:25.636Z,100281.09
2023-04-23T01:25:52.755Z,100281.50
2023-04-23T01:28:19.936Z,100278.28
2023-04-23T01:30:47.851Z,100279.97
2023-04-23T01:33:16.338Z,100268.53
2023-04-23T01:35:44.452Z,100277.53
2023-04-23T01:38:12.260Z,100270.31
2023-04-23T01:40:40.657Z,100261.53
2023-04-23T01:43:09.029Z,100254.38
2023-04-23T01:45:36.288Z,100251.00
2023-04-23T01:48:03.469Z,100255.50
2023-04-23T01:50:30.662Z,100254.75
2023-04-23T01:52:57.507Z,100255.78
2023-04-23T01:55:24.554Z,100257.47
2023-04-23T01:57:52.786Z,100249.59
2023-04-23T02:00:20.770Z,100255.66
2023-04-23T02:02:48.181Z,100262.13
2023-04-23T02:05:18.544Z,100254.53
2023-04-23T02:07:47.135Z,100250.03
2023-04-23T02:10:14.425Z,100251.88
2023-04-23T02:12:41.777Z,100246.41
2023-04-23T02:15:11.701Z,100241.69
2023-04-23T02:17:40.141Z,100247.41
2023-04-23T02:20:09.789Z,100238.03
2023-04-23T02:22:37.979Z,100243.22
2023-04-23T02:25:06.999Z,100230.81
2023-04-23T02:27:34.124Z,100235.25
2023-04-23T02:30:01.033Z,100234.63
2023-04-23T02:32:29.367Z,100237.72
2023-04-23T02:34:57.002Z,100236.16
2023-04-23T02:37:23.874Z,100235.97
2023-04-23T02:39:50.654Z,100227.25
2023-04-23T02:42:17.610Z,100222.13
2023-04-23T02:44:44.425Z,100231.59
2023-04-23T02:47:11.343Z,100218.41
2023-04-23T02:49:39.658Z,100234.03
2023-04-23T02:52:06.544Z,100243.78
2023-04-23T02:54:33.522Z,100236.72
2023-04-23T02:57:00.357Z,100242.69
2023-04-23T02:59:27.145Z,100229.28
2023-04-23T03:01:54.060Z,100238.81
2023-04-23T03:04:21.210Z,100250.47
2023-04-23T03:06:49.481Z,100239.56
2023-04-23T03:09:16.543Z,100249.81
2023-04-23T03:11:43.485Z,100242.44
2023-04-23T03:14:10.408Z,100239.47
2023-04-23T03:16:37.330Z,100239.66
2023-04-23T03:19:04.369Z,100236.13
2023-04-23T03:21:31.458Z,100230.28
2023-04-23T03:23:59.777Z,100223.50
2023-04-23T03:26:26.613Z,100223.31
2023-04-23T03:28:53.953Z,100222.94
2023-04-23T03:31:20.973Z,100221.97
2023-04-23T03:33:47.829Z,100225.63
2023-04-23T03:36:15.774Z,100234.69
2023-04-23T03:38:42.674Z,100236.03
2023-04-23T03:41:11.361Z,100235.94
2023-04-23T03:43:38.185Z,100234.59
2023-04-23T03:46:05.181Z,100222.88
2023-04-23T03:48:32.194Z,100238.47
2023-04-23T03:50:59.091Z,100233.34
2023-04-23T03:53:26.800Z,100234.06
2023-04-23T03:55:53.605Z,100228.47
2023-04-23T03:58:21.867Z,100224.84
2023-04-23T04:00:48.652Z,100220.00
2023-04-23T04:03:15.659Z,100221.06
2023-04-23T04:05:42.780Z,100223.94
2023-04-23T04:08:09.859Z,100221.13
2023-04-23T04:10:36.788Z,100211.41
2023-04-23T04:13:03.992Z,100219.59
2023-04-23T04:15:33.151Z,100215.03
2023-04-23T04:18:01.430Z,100219.44
2023-04-23T04:20:31.352Z,100219.81
2023-04-23T04:22:58.377Z,100218.25
2023-04-23T04:25:25.300Z,100221.59
2023-04-23T04:27:52.087Z,100217.09
2023-04-23T04:30:19.108Z,100222.16
2023-04-23T04:32:47.477Z,100222.25
2023-04-23T04:35:14.550Z,100213.84
2023-04-23T04:37:43.930Z,100219.72
2023-04-23T04:40:12.631Z,100215.53
2023-04-23T04:42:39.482Z,100213.03
2023-04-23T04:45:08.801Z,100210.78
2023-04-23T04:47:36.381Z,100210.03
2023-04-23T04:50:05.948Z,100212.50
2023-04-23T04:52:32.785Z,100214.38
2023-04-23T04:54:59.728Z,100208.59
2023-04-23T04:57:26.678Z,100214.91
2023-04-23T04:59:54.047Z,100215.72
2023-04-23T05:02:22.136Z,100208.13
2023-04-23T05:04:49.264Z,100213.25
2023-04-23T05:07:17.462Z,100213.88
2023-04-23T05:09:45.207Z,100214.31
2023-04-23T05:12:12.362Z,100209.75
2023-04-23T05:14:39.749Z,100201.22
2023-04-23T05:17:07.104Z,100205.41
2023-04-23T05:19:33.944Z,100204.75
2023-04-23T05:22:03.780Z,100207.84
2023-04-23T05:24:32.304Z,100196.38
2023-04-23T05:26:59.153Z,100190.97
2023-04-23T05:29:26.082Z,100200.31
2023-04-23T05:31:53.072Z,100193.47
2023-04-23T05:34:19.977Z,100189.47
2023-04-23T05:36:47.099Z,100201.34
2023-04-23T05:39:13.915Z,100196.16
2023-04-23T05:41:42.172Z,100199.00
2023-04-23T05:44:09.029Z,100203.94
2023-04-23T05:46:35.868Z,100210.78
2023-04-23T05:49:02.768Z,100213.13
2023-04-23T05:51:29.562Z,100206.75
2023-04-23T05:53:56.447Z,100215.41
2023-04-23T05:56:23.400Z,100208.69
2023-04-23T05:58:52.076Z,100209.78
2023-04-23T06:01:19.540Z,100201.88
2023-04-23T06:03:47.314Z,100213.63
2023-04-23T06:06:14.584Z,100207.94
2023-04-23T06:08:41.550Z,100208.16
2023-04-23T06:11:08.507Z,100209.34
2023-04-23T06:13:43.010Z,100207.31
2023-04-23T06:16:12.089Z,100210.63
2023-04-23T06:18:39.346Z,100205.16
2023-04-23T06:21:06.867Z,100203.81
2023-04-23T06:23:34.548Z,100205.16
2023-04-23T06:26:01.423Z,100200.28
2023-04-23T06:28:28.271Z,100198.72
2023-04-23T06:30:55.322Z,100203.22
2023-04-23T06:33:23.520Z,100202.44
2023-04-23T06:35:50.367Z,100195.22
2023-04-23T06:38:18.770Z,100191.53
2023-04-23T06:40:46.052Z,100194.81
2023-04-23T06:43:14.597Z,100181.84
2023-04-23T06:45:41.607Z,100194.00
2023-04-23T06:48:08.469Z,100191.78
2023-04-23T06:50:36.832Z,100191.41
2023-04-23T06:53:03.655Z,100178.66
2023-04-23T06:55:30.478Z,100184.72
2023-04-23T06:57:57.891Z,100181.09
2023-04-23T07:00:24.919Z,100189.88
2023-04-23T07:02:52.080Z,100167.91
2023-04-23T07:05:19.442Z,100162.00
2023-04-23T07:07:47.695Z,100173.41
2023-04-23T07:10:16.299Z,100178.06
2023-04-23T07:12:45.148Z,100176.25
2023-04-23T07:15:12.385Z,100173.88
2023-04-23T07:17:39.334Z,100168.03
2023-04-23T07:20:08.536Z,100159.16
2023-04-23T07:22:35.585Z,100167.97
2023-04-23T07:25:05.382Z,100163.25
2023-04-23T07:27:32.269Z,100162.09
2023-04-23T07:29:59.104Z,100163.41
2023-04-23T07:32:28.280Z,100165.81
2023-04-23T07:34:56.308Z,100163.38
2023-04-23T07:37:23.250Z,100162.19
2023-04-23T07:39:50.203Z,100158.97
2023-04-23T07:42:18.596Z,100149.56
2023-04-23T07:44:45.774Z,100155.41
2023-04-23T07:47:12.755Z,100164.53
2023-04-23T07:49:39.972Z,100160.47
2023-04-23T07:52:08.259Z,100155.25
2023-04-23T07:54:35.089Z,100149.94
2023-04-23T07:57:02.998Z,100160.75
2023-04-23T07:59:31.619Z,100151.78
2023-04-23T08:01:58.470Z,100144.78
2023-04-23T08:04:25.749Z,100154.84
2023-04-23T08:06:52.686Z,100146.72
2023-04-23T08:09:19.558Z,100151.84
2023-04-23T08:11:46.439Z,100143.47
2023-04-23T08:14:13.333Z,100136.97
2023-04-23T08:16:41.583Z,100147.25
2023-04-23T08:19:08.467Z,100145.53
2023-04-23T08:21:35.399Z,100151.34
2023-04-23T08:24:05.123Z,100149.59
2023-04-23T08:26:32.056Z,100151.75
2023-04-23T08:29:00.683Z,100144.47
2023-04-23T08:31:27.812Z,100140.16
2023-04-23T08:33:56.179Z,100145.63
2023-04-23T08:36:23.011Z,100136.00
2023-04-23T08:38:49.832Z,100144.63
2023-04-23T08:41:18.865Z,100137.34
2023-04-23T08:43:50.926Z,100130.09
2023-04-23T08:46:19.264Z,100143.38
2023-04-23T08:48:47.498Z,100144.81
2023-04-23T08:51:19.899Z,100150.94
2023-04-23T08:53:52.521Z,100153.03
2023-04-23T08:56:21.280Z,100143.47
2023-04-23T08:58:50.810Z,100137.47
2023-04-23T09:01:18.225Z,100134.19
2023-04-23T09:03:46.368Z,100140.28
2023-04-23T09:06:13.316Z,100141.88
2023-04-23T09:08:42.008Z,100141.53
2023-04-23T09:11:09.633Z,100139.03
2023-04-23T09:13:37.128Z,100136.22
2023-04-23T09:16:05.729Z,100122.91
2023-04-23T09:18:32.621Z,100124.81
2023-04-23T09:21:01.275Z,100122.81
2023-04-23T09:23:28.109Z,100131.41
2023-04-23T09:25:56.630Z,100121.69
2023-04-23T09:28:34.709Z,100116.81
2023-04-23T09:31:01.963Z,100103.81
2023-04-23T09:33:28.897Z,100106.13
2023-04-23T09:35:55.715Z,100109.41
2023-04-23T09:38:22.630Z,100113.13
2023-04-23T09:40:50.673Z,100113.50
2023-04-23T09:43:18.913Z,100114.09
2023-04-23T09:45:49.403Z,100099.16
2023-04-23T09:48:16.449Z,100100.72
2023-04-23T09:50:43.419Z,100099.00
2023-04-23T09:53:10.779Z,100103.97
2023-04-23T09:55:40.055Z,100095.19
2023-04-23T09:58:11.315Z,100091.81
2023-04-23T10:00:40.426Z,100096.25
2023-04-23T10:03:09.027Z,100087.19
2023-04-23T10:05:59.265Z,100076.34
2023-04-23T10:08:28.382Z,100086.38
2023-04-23T10:11:06.681Z,100074.94
2023-04-23T10:13:42.323Z,100076.06
2023-04-23T10:16:21.599Z,100076.06
2023-04-23T10:18:51.576Z,100073.41
2023-04-23T10:21:20.347Z,100070.00
2023-04-23T10:23:50.084Z,100057.97
2023-04-23T10:26:17.349Z,100065.44
2023-04-23T10:28:47.766Z,100062.94
2023-04-23T10:31:18.159Z,100062.75
2023-04-23T10:33:58.368Z,100058.94
2023-04-23T10:36:28.211Z,100054.97
2023-04-23T10:38:59.229Z,100043.47
2023-04-23T10:41:34.654Z,100034.00
2023-04-23T10:44:01.505Z,100042.03
2023-04-23T10:46:30.441Z,100032.31
2023-04-23T10:49:15.987Z,100031.66
2023-04-23T10:52:18.013Z,100030.78
2023-04-23T10:54:33.907Z,100018.84
2023-04-23T10:57:02.996Z,100009.00
2023-04-23T10:59:32.210Z,100022.47
2023-04-23T11:02:09.711Z,100011.56
2023-04-23T11:04:42.232Z,100012.25
2023-04-23T11:07:10.265Z,100005.44
2023-04-23T11:09:40.004Z,99993.50
2023-04-23T11:12:09.166Z,100001.03
2023-04-23T11:14:48.739Z,99996.16
2023-04-23T11:17:18.680Z,99994.34
2023-04-23T11:20:10.710Z,99996.16
2023-04-23T11:22:38.876Z,99991.03
2023-04-23T11:25:09.593Z,99981.03
2023-04-23T11:27:38.978Z,99976.56
2023-04-23T11:30:11.151Z,99980.47
2023-04-23T11:32:40.938Z,99974.38
2023-04-23T11:35:11.439Z,99971.72
2023-04-23T11:37:41.066Z,99967.09
2023-04-23T11:40:13.899Z,99966.66
2023-04-23T11:42:46.609Z,99969.47
2023-04-23T11:45:17.741Z,99954.63
2023-04-23T11:47:47.702Z,99953.00
2023-04-23T11:50:18.976Z,99953.09
2023-04-23T11:52:46.058Z,99942.09
2023-04-23T11:55:13.431Z,99948.44
2023-04-23T11:57:44.516Z,99944.13
2023-04-23T12:00:14.973Z,99938.47
2023-04-23T12:02:55.146Z,99934.63
2023-04-23T12:05:23.785Z,99925.59
2023-04-23T12:07:52.001Z,99921.81
2023-04-23T12:10:20.224Z,99920.75
2023-04-23T12:12:51.868Z,99917.22
2023-04-23T12:15:18.892Z,99904.59
2023-04-23T12:17:50.096Z,99906.75
2023-04-23T12:20:20.030Z,99895.16
2023-04-23T12:22:47.027Z,99897.28
2023-04-23T12:25:14.068Z,99889.25
2023-04-23T12:27:42.515Z,99872.66
2023-04-23T12:30:12.061Z,99866.28
2023-04-23T12:32:39.098Z,99867.66
2023-04-23T12:35:06.732Z,99865.72
2023-04-23T12:37:37.670Z,99859.09
2023-04-23T12:40:07.211Z,99857.00
2023-04-23T12:42:35.465Z,99849.28
2023-04-23T12:45:07.440Z,99848.88
2023-04-23T12:47:34.509Z,99850.13
2023-04-23T12:50:01.646Z,99835.91
2023-04-23T12:52:29.479Z,99833.50
2023-04-23T12:54:59.122Z,99822.78
2023-04-23T12:57:27.724Z,99826.97
2023-04-23T12:59:55.225Z,99822.41
2023-04-23T13:02:23.597Z,99818.84
2023-04-23T13:04:50.506Z,99816.81
2023-04-23T13:07:17.404Z,99807.53
2023-04-23T13:09:44.510Z,99809.41
2023-04-23T13:12:13.048Z,99799.53
2023-04-23T13:14:39.936Z,99799.28
2023-04-23T13:17:07.210Z,99780.06
2023-04-23T13:19:35.488Z,99785.94
2023-04-23T13:22:04.203Z,99774.66
2023-04-23T13:24:31.164Z,99761.09
2023-04-23T13:26:58.106Z,99768.13
2023-04-23T13:29:29.300Z,99764.97
2023-04-23T13:31:56.965Z,99755.75
2023-04-23T13:34:23.951Z,99749.97
2023-04-23T13:36:51.140Z,99738.13
2023-04-23T13:39:18.408Z,99741.97
2023-04-23T13:41:47.859Z,99737.00
2023-04-23T13:44:18.373Z,99739.09
2023-04-23T13:46:46.878Z,99736.56
2023-04-23T13:49:13.692Z,99726.84
2023-04-23T13:51:40.583Z,99727.63
2023-04-23T13:54:07.365Z,99717.06
2023-04-23T13:56:34.261Z,99720.38
2023-04-23T14:01:33.508Z,99704.84
2023-04-23T14:04:04.131Z,99702.75
2023-04-23T14:06:31.277Z,99694.94
2023-04-23T14:08:58.326Z,99681.53
2023-04-23T14:11:25.355Z,99681.78
2023-04-23T14:13:52.437Z,99675.03
2023-04-23T14:16:19.488Z,99674.00
2023-04-23T14:18:46.556Z,99668.19
2023-04-23T14:21:16.406Z,99660.03
2023-04-23T14:23:49.372Z,99652.31
2023-04-23T14:26:31.678Z,99647.66
2023-04-23T14:29:11.229Z,99649.47
2023-04-23T14:31:38.500Z,99643.34
2023-04-23T14:34:06.296Z,99645.00
2023-04-23T14:36:35.252Z,99637.69
2023-04-23T14:39:05.346Z,99629.03
2023-04-23T14:41:33.157Z,99630.94
2023-04-23T14:44:01.385Z,99615.69
2023-04-23T14:46:31.987Z,99615.69
2023-04-23T14:48:59.150Z,99611.63
2023-04-23T14:51:27.441Z,99606.13
2023-04-23T14:53:56.824Z,99611.56
2023-04-23T14:56:24.324Z,99592.47
2023-04-23T14:58:51.293Z,99591.84
2023-04-23T15:01:18.338Z,99587.78
2023-04-23T15:03:46.477Z,99596.66
2023-04-23T15:06:13.780Z,99580.81
2023-04-23T15:08:40.876Z,99572.31
2023-04-23T15:11:13.600Z,99564.97
2023-04-23T15:13:50.593Z,99569.00
2023-04-23T15:16:40.508Z,99569.50
2023-04-23T15:19:13.879Z,99561.94
2023-04-23T15:21:43.136Z,99555.94
2023-04-23T15:24:10.388Z,99544.13
2023-04-23T15:26:39.163Z,99551.00
2023-04-23T15:29:09.049Z,99537.81
2023-04-23T15:31:36.199Z,99531.38
2023-04-23T15:34:03.075Z,99532.44
2023-04-23T15:36:29.919Z,99523.38
2023-04-23T15:38:56.782Z,99514.59
2023-04-23T15:41:24.462Z,99510.78
2023-04-23T15:43:54.120Z,99503.91
2023-04-23T15:46:21.163Z,99487.34
2023-04-23T15:48:48.142Z,99477.34
2023-04-23T15:51:15.137Z,99473.53
2023-04-23T15:53:42.673Z,99473.31
2023-04-23T15:56:09.753Z,99465.16
2023-04-23T15:58:36.721Z,99471.38
2023-04-23T16:01:07.249Z,99452.09
2023-04-23T16:03:34.762Z,99457.22
2023-04-23T16:06:02.227Z,99444.13
2023-04-23T16:08:29.201Z,99445.72
2023-04-23T16:10:58.123Z,99442.34
2023-04-23T16:13:25.349Z,99434.91
2023-04-23T16:15:52.754Z,99427.72
2023-04-23T16:18:21.182Z,99424.41
2023-04-23T16:20:48.058Z,99420.25
2023-04-23T16:23:15.359Z,99412.97
2023-04-23T16:25:42.966Z,99410.09
2023-04-23T16:28:09.936Z,99402.69
2023-04-23T16:30:36.835Z,99393.41
2023-04-23T16:33:04.048Z,99390.59
2023-04-23T16:35:32.946Z,99386.81
2023-04-23T16:37:59.857Z,99380.53
2023-04-23T16:40:27.103Z,99379.63
2023-04-23T16:42:53.906Z,99378.84
2023-04-23T16:45:23.160Z,99375.69
2023-04-23T16:47:50.322Z,99372.59
2023-04-23T16:50:17.327Z,99373.19
2023-04-23T16:52:45.737Z,99363.78
2023-04-23T16:55:12.691Z,99368.88
2023-04-23T16:57:39.587Z,99366.25
2023-04-23T17:00:08.083Z,99365.81
2023-04-23T17:02:35.328Z,99371.00
2023-04-23T17:05:02.450Z,99371.75
2023-04-23T17:07:29.422Z,99358.25
2023-04-23T17:09:57.775Z,99355.16
2023-04-23T17:12:25.000Z,99357.78
2023-04-23T17:14:51.856Z,99352.88
2023-04-23T17:17:19.018Z,99348.44
2023-04-23T17:19:45.966Z,99347.94
2023-04-23T17:22:12.999Z,99356.03
2023-04-23T17:24:39.974Z,99352.53
2023-04-23T17:27:08.371Z,99359.72
2023-04-23T17:29:35.322Z,99362.56
2023-04-23T17:32:02.907Z,99383.75
2023-04-23T17:34:30.129Z,99394.41
2023-04-23T17:36:57.164Z,99422.88
2023-04-23T17:39:26.129Z,99451.44
2023-04-23T17:44:36.068Z,99446.97
2023-04-23T17:47:02.916Z,99448.22
2023-04-23T17:49:29.853Z,99453.44
2023-04-23T17:51:58.229Z,99466.28
2023-04-23T17:54:25.310Z,99475.94
2023-04-23T17:56:52.316Z,99478.25
2023-04-23T17:59:19.126Z,99494.72
2023-04-23T18:01:49.199Z,99504.19
2023-04-23T18:04:17.726Z,99503.09
2023-04-23T18:06:45.134Z,99510.00
2023-04-23T18:09:11.975Z,99515.63
2023-04-23T18:11:39.839Z,99533.75
2023-04-23T18:14:06.893Z,99537.34
2023-04-23T18:16:33.760Z,99537.72
2023-04-23T18:19:02.049Z,99550.03
2023-04-23T18:21:29.457Z,99555.78
2023-04-23T18:23:56.342Z,99559.72
2023-04-23T18:26:23.990Z,99563.34
2023-04-23T18:28:50.812Z,99571.75
2023-04-23T18:31:17.723Z,99575.66
2023-04-23T18:33:52.187Z,99588.25
2023-04-23T18:36:25.588Z,99586.03
2023-04-23T18:38:52.506Z,99595.81
2023-04-23T18:41:19.341Z,99591.41
2023-04-23T18:43:46.264Z,99596.47
2023-04-23T18:46:13.411Z,99620.59
2023-04-23T18:48:46.180Z,99621.47
2023-04-23T18:51:26.768Z,99632.88
2023-04-23T18:53:53.786Z,99635.28
2023-04-23T18:56:20.807Z,99643.69
2023-04-23T18:58:47.707Z,99644.81
2023-04-23T19:01:14.924Z,99654.44
2023-04-23T19:03:42.051Z,99664.69
2023-04-23T19:06:09.094Z,99653.41
2023-04-23T19:08:37.545Z,99663.22
2023-04-23T19:11:05.116Z,99674.97
2023-04-23T19:13:32.166Z,99682.25
2023-04-23T19:15:59.715Z,99685.94
2023-04-23T19:18:27.497Z,99690.78
2023-04-23T19:20:54.408Z,99692.31
2023-04-23T19:23:21.396Z,99693.16
2023-04-23T19:25:49.674Z,99698.81
2023-04-23T19:28:16.610Z,99701.22
2023-04-23T19:30:43.474Z,99702.91
2023-04-23T19:33:10.523Z,99710.50
2023-04-23T19:35:40.025Z,99715.00
2023-04-23T19:38:07.352Z,99721.78
2023-04-23T19:40:34.428Z,99722.59
2023-04-23T19:43:02.874Z,99715.75
2023-04-23T19:45:30.586Z,99730.22
2023-04-23T19:47:57.624Z,99732.63
2023-04-23T19:50:24.975Z,99730.97
2023-04-23T19:52:51.838Z,99745.28
2023-04-23T19:55:22.242Z,99738.59
2023-04-23T19:57:49.184Z,99730.72
2023-04-23T20:00:18.299Z,99742.16
2023-04-23T20:02:45.506Z,99740.56
2023-04-23T20:05:12.626Z,99747.41
2023-04-23T20:07:39.559Z,99753.41
2023-04-23T20:10:07.552Z,99749.06
2023-04-23T20:12:34.893Z,99760.75
2023-04-23T20:15:02.171Z,99757.19
2023-04-23T20:17:31.059Z,99764.03
2023-04-23T20:20:01.871Z,99764.72
2023-04-23T20:22:29.149Z,99758.28
2023-04-23T20:24:56.116Z,99756.72
2023-04-23T20:27:23.590Z,99763.91
2023-04-23T20:29:50.683Z,99767.09
2023-04-23T20:32:17.541Z,99781.09
2023-04-23T20:34:45.878Z,99777.47
2023-04-23T20:37:13.861Z,99777.81
2023-04-23T20:39:41.979Z,99775.09
2023-04-23T20:42:09.009Z,99775.97
2023-04-23T20:44:36.306Z,99782.44
2023-04-23T20:47:08.421Z,99781.28
2023-04-23T20:49:35.301Z,99767.28
2023-04-23T20:52:03.732Z,99776.31
2023-04-23T20:54:31.077Z,99783.16
2023-04-23T20:56:58.677Z,99783.13
2023-04-23T20:59:25.619Z,99782.25
2023-04-23T21:01:53.084Z,99781.22
2023-04-23T21:04:20.121Z,99779.75
2023-04-23T21:06:47.233Z,99773.41
2023-04-23T21:09:16.354Z,99776.56
2023-04-23T21:11:43.687Z,99774.63
2023-04-23T21:14:10.922Z,99772.94
2023-04-23T21:16:38.282Z,99770.09
2023-04-23T21:19:05.813Z,99765.69
2023-04-23T21:21:32.900Z,99775.69
2023-04-23T21:24:02.899Z,99775.78
2023-04-23T21:26:31.268Z,99778.34
2023-04-23T21:28:58.354Z,99779.81
2023-04-23T21:31:33.791Z,99785.97
2023-04-23T21:34:00.829Z,99779.56
2023-04-23T21:36:28.514Z,99781.84
2023-04-23T21:38:55.400Z,99780.63
2023-04-23T21:41:22.430Z,99777.56
2023-04-23T21:43:50.700Z,99786.13
2023-04-23T21:46:17.808Z,99791.59
2023-04-23T21:48:44.644Z,99787.38
2023-04-23T21:51:11.725Z,99783.47
2023-04-23T21:53:38.533Z,99785.34
2023-04-23T21:56:05.989Z,99792.09
2023-04-23T21:58:34.743Z,99791.00
2023-04-23T22:01:04.099Z,99794.09
2023-04-23T22:03:38.629Z,99796.13
2023-04-23T22:06:08.086Z,99799.97
2023-04-23T22:08:38.041Z,99800.41
2023-04-23T22:11:05.326Z,99803.28
2023-04-23T22:13:32.186Z,99804.50
2023-04-23T22:15:59.171Z,99799.75
2023-04-23T22:18:27.607Z,99800.31
2023-04-23T22:20:54.451Z,99801.94
2023-04-23T22:23:21.674Z,99796.66
2023-04-23T22:25:48.563Z,99797.91
2023-04-23T22:28:15.442Z,99799.22
2023-04-23T22:30:42.657Z,99804.13
2023-04-23T22:33:09.512Z,99801.66
2023-04-23T22:35:37.720Z,99804.78
2023-04-23T22:38:05.658Z,99808.28
2023-04-23T22:40:32.766Z,99808.28
2023-04-23T22:42:59.657Z,99811.00
2023-04-23T22:45:26.652Z,99810.97
2023-04-23T22:47:53.519Z,99808.03
2023-04-23T22:50:20.413Z,99817.81
2023-04-23T22:52:48.990Z,99815.59
2023-04-23T22:55:16.089Z,99815.59
2023-04-23T22:57:42.996Z,99822.75
2023-04-23T23:00:13.433Z,99828.06
2023-04-23T23:02:40.432Z,99831.44
2023-04-23T23:05:08.151Z,99827.13
2023-04-23T23:07:35.062Z,99832.59
2023-04-23T23:10:03.844Z,99834.44
2023-04-23T23:12:30.726Z,99835.06
2023-04-23T23:14:57.591Z,99834.25
2023-04-23T23:17:24.454Z,99841.09
2023-04-23T23:19:51.377Z,99842.41
2023-04-23T23:22:18.304Z,99843.75
2023-04-23T23:24:45.159Z,99842.50
2023-04-23T23:27:13.373Z,99836.81
2023-04-23T23:29:40.361Z,99846.84
2023-04-23T23:32:07.378Z,99843.38
2023-04-23T23:34:34.502Z,99842.41
2023-04-23T23:37:01.312Z,99836.81
2023-04-23T23:39:28.947Z,99846.97
2023-04-23T23:41:58.325Z,99846.06
2023-04-23T23:44:27.996Z,99842.88
2023-04-23T23:46:55.052Z,99849.34
2023-04-23T23:49:22.069Z,99846.91
2023-04-23T23:51:49.018Z,99846.31
2023-04-23T23:54:15.955Z,99845.53
2023-04-23T23:56:42.913Z,99842.25
2023-04-23T23:59:09.788Z,99841.94
